Terminal Aerodrome Forecast
Issued by NWS

Home | Current Version | Previous Version | Text Only | Print | Product List | Glossary On
Versions: 1 2 3 4 5 6 7 8 9 10 11 12 13 14 15 16 17 18
523
FTAK31 PAJN 261740
TAFAGY
TAF
PAGY 261740Z 2618/2718 VRB05KT P6SM -RA OVC100
      TEMPO 2618/2622 3SM -RA BR SCT005 BKN070 OVC100
     FM262200 04008KT P6SM BKN050 OVC100
     FM270200 04008G18KT P6SM BKN100
     FM270800 04005KT P6SM SCT070 BKN100
      AMD LTD TO CLD VIS AND WIND=

USA.gov is the U.S. government's official web portal to all federal, state and local government web resources and services.